createdAt,value
2017-12-21T00:04:12.975Z,1.6
2017-12-21T00:09:13.020Z,1.6
2017-12-21T00:14:13.011Z,1.6
2017-12-21T00:19:13.062Z,1.5
2017-12-21T00:24:12.969Z,1.5
2017-12-21T00:29:13.035Z,1.6
2017-12-21T00:34:13.042Z,1.6
2017-12-21T00:39:12.943Z,1.6
2017-12-21T00:44:12.998Z,1.6
2017-12-21T00:49:13.046Z,1.6
2017-12-21T00:54:12.896Z,1.6
2017-12-21T00:59:13.004Z,1.5
2017-12-21T01:04:12.999Z,1.6
2017-12-21T01:09:12.950Z,1.6
2017-12-21T01:14:13.290Z,1.6
2017-12-21T01:19:13.021Z,1.6
2017-12-21T01:24:12.995Z,1.6
2017-12-21T01:29:12.988Z,1.7
2017-12-21T01:34:12.983Z,1.7
2017-12-21T01:39:13.026Z,1.8
2017-12-21T01:44:12.960Z,1.8
2017-12-21T01:49:13.080Z,1.8
2017-12-21T01:54:13.019Z,1.8
2017-12-21T01:59:13.040Z,1.8
2017-12-21T02:04:13.082Z,1.9
2017-12-21T02:09:13.112Z,1.9
2017-12-21T02:14:13.015Z,1.9
2017-12-21T02:19:12.911Z,1.9
2017-12-21T02:24:12.984Z,1.9
2017-12-21T02:29:13.135Z,2
2017-12-21T02:34:13.028Z,2
2017-12-21T02:39:13.078Z,2
2017-12-21T02:44:12.938Z,2
2017-12-21T02:49:12.920Z,2
2017-12-21T02:54:13.067Z,2
2017-12-21T02:59:13.096Z,2
2017-12-21T03:04:12.926Z,2
2017-12-21T03:09:13.052Z,2
2017-12-21T03:14:13.073Z,2.1
2017-12-21T03:19:13.068Z,2.1
2017-12-21T03:24:12.945Z,2.1
2017-12-21T03:29:13.072Z,2.1
2017-12-21T03:34:12.953Z,2.1
2017-12-21T03:39:13.138Z,2
2017-12-21T03:44:13.049Z,2
2017-12-21T03:49:13.081Z,2
2017-12-21T03:54:13.133Z,2
2017-12-21T03:59:13.041Z,2
2017-12-21T04:04:13.072Z,2
2017-12-21T04:09:13.029Z,2.1
2017-12-21T04:14:12.961Z,2.1
2017-12-21T04:19:13.182Z,2.2
2017-12-21T04:24:13.085Z,2.2
2017-12-21T04:29:13.147Z,2.3
2017-12-21T04:34:12.980Z,2.3
2017-12-21T04:39:12.978Z,2.3
2017-12-21T04:44:13.003Z,2.3
2017-12-21T04:49:13.022Z,2.3
2017-12-21T04:54:12.983Z,2.3
2017-12-21T04:59:12.989Z,2.2
2017-12-21T05:04:13.002Z,2.3
2017-12-21T05:09:13.000Z,2.3
2017-12-21T05:14:13.056Z,2.3
2017-12-21T05:19:13.064Z,2.3
2017-12-21T05:24:13.002Z,2.3
2017-12-21T05:29:12.993Z,2.3
2017-12-21T05:34:13.020Z,2.3
2017-12-21T05:39:13.024Z,2.3
2017-12-21T05:44:13.005Z,2.3
2017-12-21T05:49:13.007Z,2.4
2017-12-21T05:54:13.031Z,2.4
2017-12-21T05:59:13.015Z,2.4
2017-12-21T06:04:13.033Z,2.4
2017-12-21T06:09:13.226Z,2.4
2017-12-21T06:14:13.044Z,2.3
2017-12-21T06:19:13.033Z,2.3
2017-12-21T06:24:13.219Z,2.2
2017-12-21T06:29:13.103Z,2.2
2017-12-21T06:34:13.046Z,2.2
2017-12-21T06:39:13.103Z,2.1
2017-12-21T06:44:13.160Z,2.1
2017-12-21T06:49:13.150Z,2.1
2017-12-21T06:54:13.039Z,2.1
2017-12-21T06:59:13.259Z,2
2017-12-21T07:04:13.137Z,2
2017-12-21T07:09:13.190Z,2
2017-12-21T07:14:13.138Z,2
2017-12-21T07:19:23.217Z,1.9
2017-12-21T07:24:13.157Z,1.9
2017-12-21T07:29:13.187Z,1.9
2017-12-21T07:34:13.245Z,1.9
2017-12-21T07:39:13.073Z,2
2017-12-21T07:44:13.179Z,2
2017-12-21T07:49:13.155Z,2
2017-12-21T07:54:13.138Z,1.9
2017-12-21T07:59:13.286Z,2
2017-12-21T08:04:13.208Z,2
2017-12-21T08:09:13.161Z,2
2017-12-21T08:14:13.263Z,2
2017-12-21T08:19:13.213Z,2
2017-12-21T08:24:13.216Z,2
2017-12-21T08:29:13.280Z,2
2017-12-21T08:34:13.117Z,2.1
2017-12-21T08:39:13.205Z,2.2
2017-12-21T08:44:13.187Z,2.3
2017-12-21T08:49:13.276Z,2.4
2017-12-21T08:54:13.191Z,2.4
2017-12-21T08:59:13.239Z,2.5
2017-12-21T09:04:13.186Z,2.5
2017-12-21T09:09:13.185Z,2.5
2017-12-21T09:14:13.212Z,2.5
2017-12-21T09:19:13.252Z,2.5
2017-12-21T09:24:13.295Z,2.5
2017-12-21T09:29:13.116Z,2.6
2017-12-21T09:34:13.121Z,2.6
2017-12-21T09:39:13.134Z,2.7
2017-12-21T09:44:13.216Z,2.8
2017-12-21T09:49:13.226Z,2.8
2017-12-21T09:54:13.261Z,2.8
2017-12-21T09:59:13.156Z,2.9
2017-12-21T10:04:13.167Z,2.9
2017-12-21T10:09:13.247Z,3
2017-12-21T10:14:13.146Z,3.1
2017-12-21T10:19:13.218Z,3.1
2017-12-21T10:24:13.337Z,3.1
2017-12-21T10:29:13.154Z,3.1
2017-12-21T10:34:13.302Z,3
2017-12-21T10:39:13.251Z,3
2017-12-21T10:44:13.240Z,3
2017-12-21T10:49:13.281Z,3
2017-12-21T10:54:13.277Z,3
2017-12-21T10:59:13.245Z,3.1
2017-12-21T11:04:13.249Z,3.1
2017-12-21T11:09:13.307Z,3.1
2017-12-21T11:14:13.170Z,3.2
2017-12-21T11:19:13.375Z,3.1
2017-12-21T11:24:13.310Z,3.1
2017-12-21T11:29:13.266Z,3.1
2017-12-21T11:34:13.276Z,3.1
2017-12-21T11:39:13.272Z,3.1
2017-12-21T11:44:13.303Z,3.1
2017-12-21T11:49:13.285Z,3.1
2017-12-21T11:54:13.197Z,3.2
2017-12-21T11:59:13.297Z,3.2
2017-12-21T12:04:13.343Z,3.2
2017-12-21T12:09:13.373Z,3.2
2017-12-21T12:14:13.304Z,3.1
2017-12-21T12:19:13.307Z,3.2
2017-12-21T12:24:13.298Z,3.3
2017-12-21T12:29:13.324Z,3.3
2017-12-21T12:34:13.317Z,3.3
2017-12-21T12:39:13.332Z,3.3
2017-12-21T12:44:13.326Z,3.3
2017-12-21T12:49:13.396Z,3.3
2017-12-21T12:54:13.430Z,3.3
2017-12-21T12:59:13.353Z,3.4
2017-12-21T13:04:13.318Z,3.5
2017-12-21T13:09:13.358Z,3.5
2017-12-21T13:14:13.258Z,3.5
2017-12-21T13:19:13.241Z,3.5
2017-12-21T13:24:13.250Z,3.5
2017-12-21T13:29:13.255Z,3.5
2017-12-21T13:34:13.247Z,3.5
2017-12-21T13:39:13.270Z,3.5
2017-12-21T13:44:13.688Z,3.6
2017-12-21T13:49:13.876Z,3.6
2017-12-21T13:54:15.397Z,3.7
2017-12-21T13:59:16.392Z,3.7
2017-12-21T14:04:15.138Z,3.8
2017-12-21T14:09:15.224Z,3.8
2017-12-21T14:14:15.154Z,3.8
2017-12-21T14:19:15.523Z,3.8
2017-12-21T14:24:15.160Z,3.8
2017-12-21T14:29:15.821Z,3.8
2017-12-21T14:34:15.272Z,3.8
2017-12-21T14:39:15.198Z,3.8
2017-12-21T14:44:15.350Z,3.8
2017-12-21T14:49:15.273Z,3.8
2017-12-21T14:54:15.279Z,3.8
2017-12-21T14:59:15.339Z,3.8
2017-12-21T15:04:15.248Z,3.7
2017-12-21T15:09:15.172Z,3.7
2017-12-21T15:14:15.320Z,3.7
2017-12-21T15:19:15.187Z,3.7
2017-12-21T15:24:15.356Z,3.7
2017-12-21T15:29:22.112Z,3.7
2017-12-21T15:34:19.904Z,3.7
2017-12-21T15:39:15.286Z,3.6
2017-12-21T15:44:15.253Z,3.6
2017-12-21T15:54:16.330Z,3.7
2017-12-21T16:04:15.259Z,3.7
2017-12-21T16:09:15.267Z,3.7
2017-12-21T16:14:15.319Z,3.7
2017-12-21T16:19:15.437Z,3.7
2017-12-21T16:24:15.291Z,3.7
2017-12-21T16:29:15.261Z,3.7
2017-12-21T16:34:18.253Z,3.7
2017-12-21T16:39:19.725Z,3.7
2017-12-21T16:44:15.883Z,3.7
2017-12-21T16:49:15.909Z,3.7
2017-12-21T16:54:15.530Z,3.7
2017-12-21T16:59:16.259Z,3.8
2017-12-21T17:04:15.391Z,3.8
2017-12-21T17:09:16.266Z,3.8
2017-12-21T17:14:16.269Z,3.9
2017-12-21T17:19:15.517Z,3.9
2017-12-21T17:24:15.422Z,4
2017-12-21T17:29:15.423Z,4
2017-12-21T17:34:15.463Z,4
2017-12-21T17:39:15.321Z,4
2017-12-21T17:44:15.316Z,4.1
2017-12-21T17:54:15.480Z,4
2017-12-21T17:59:15.351Z,4.1
2017-12-21T18:04:15.425Z,4.1
2017-12-21T18:09:15.365Z,4.1
2017-12-21T18:14:15.341Z,4.1
2017-12-21T18:19:15.570Z,4.1
2017-12-21T18:24:15.451Z,4.1
2017-12-21T18:29:15.419Z,4.1
2017-12-21T18:34:15.357Z,4.1
2017-12-21T18:39:15.445Z,4.1
2017-12-21T18:44:15.467Z,4.1
2017-12-21T18:49:15.669Z,4.1
2017-12-21T18:54:15.399Z,4.1
2017-12-21T18:59:15.398Z,4.1
2017-12-21T19:04:15.530Z,4.1
2017-12-21T19:09:15.455Z,4
2017-12-21T19:14:15.385Z,4
2017-12-21T19:19:15.375Z,3.9
2017-12-21T19:24:15.461Z,3.9
2017-12-21T19:29:15.612Z,3.9
2017-12-21T19:39:15.826Z,3.8
2017-12-21T19:44:15.562Z,3.8
2017-12-21T19:49:16.009Z,3.8
2017-12-21T19:54:15.697Z,3.7
2017-12-21T19:59:16.132Z,3.7
2017-12-21T20:04:15.394Z,3.7
2017-12-21T20:09:15.799Z,3.6
2017-12-21T20:14:16.550Z,3.6
2017-12-21T20:19:15.894Z,3.6
2017-12-21T20:24:15.616Z,3.6
2017-12-21T20:29:18.906Z,3.6
2017-12-21T20:34:15.849Z,3.6
2017-12-21T20:39:16.163Z,3.6
2017-12-21T20:44:15.789Z,3.6
2017-12-21T20:49:16.115Z,3.6
2017-12-21T20:54:15.563Z,3.6
2017-12-21T20:59:15.973Z,3.5
2017-12-21T21:04:15.501Z,3.5
2017-12-21T21:09:16.036Z,3.5
2017-12-21T21:14:16.404Z,3.5
2017-12-21T21:19:17.075Z,3.5
2017-12-21T21:24:16.948Z,3.5
2017-12-21T21:29:16.394Z,3.5
2017-12-21T21:39:47.434Z,3.5
2017-12-21T21:44:52.497Z,3.5
2017-12-21T21:49:47.706Z,3.5
2017-12-21T21:55:04.537Z,3.5
2017-12-21T21:59:48.657Z,3.5
2017-12-21T22:04:49.328Z,3.5
2017-12-21T22:09:47.968Z,3.5
2017-12-21T22:14:47.871Z,3.5
2017-12-21T22:19:48.397Z,3.5
2017-12-21T22:24:48.226Z,3.5
2017-12-21T22:29:48.415Z,3.5
2017-12-21T22:34:47.826Z,3.5
2017-12-21T22:39:48.421Z,3.5
2017-12-21T22:44:48.126Z,3.5
2017-12-21T22:49:48.305Z,3.5
2017-12-21T22:54:47.479Z,3.5
2017-12-21T22:59:47.567Z,3.5
2017-12-21T23:04:47.591Z,3.5
2017-12-21T23:09:47.613Z,3.5
2017-12-21T23:14:47.679Z,3.5
2017-12-21T23:19:47.623Z,3.6
2017-12-21T23:24:47.636Z,3.6
2017-12-21T23:29:47.664Z,3.6
2017-12-21T23:34:47.469Z,3.6
2017-12-21T23:39:47.568Z,3.6
2017-12-21T23:44:47.483Z,3.6
2017-12-21T23:49:47.629Z,3.7
2017-12-21T23:54:47.552Z,3.7
2017-12-21T23:59:47.602Z,3.7
